Flight Track Log - Related Links

Times and Time Zones

All times are in EDT time to prevent confusion due to time zone crossing. See the N929SR flight status page for this flight to view local times or setup timezone preferences in your user account.

Time Position Orientation Groundspeed Altitude Reporting Facility
EDT Latitude Longitude Course Direction KTS MPH feet Rate Location/Type
Tue 12:06:57 PM 33.8500 -84.3167 331° Northwest 179 206 2,300  Level Atlanta TRACON
Tue 12:08:03 PM 33.9000 -84.3500 331° Northwest 232 267 5,500 3,449 Climbing Atlanta TRACON
Tue 12:09:04 PM 33.9667 -84.3500 360° North 252 290 9,600 3,130 Climbing Atlanta TRACON
Tue 12:11:30 PM 34.1906 -84.3250 North 332 382 16,300 2,738 Climbing Atlanta Center
Tue 12:12:30 PM 34.3033 -84.3128 North 394 453 19,000 2,600 Climbing Atlanta Center
Tue 12:13:30 PM 34.4097 -84.3108 North 416 479 21,500 2,700 Climbing Atlanta Center
Tue 12:14:30 PM 34.5244 -84.3111 360° North 416 479 24,400 2,950 Climbing Atlanta Center
Tue 12:15:30 PM 34.6414 -84.3114 360° North 421 484 27,400 2,900 Climbing Atlanta Center
Tue 12:16:30 PM 34.7644 -84.3119 360° North 421 484 30,200 2,650 Climbing Atlanta Center
Tue 12:17:30 PM 34.8814 -84.3122 360° North 421 484 32,700 2,450 Climbing Atlanta Center
Tue 12:18:30 PM 34.9981 -84.3125 360° North 415 478 35,100 2,400 Climbing Atlanta Center
Tue 12:19:30 PM 35.1192 -84.3131 360° North 422 486 37,500 2,400 Climbing Atlanta Center
Tue 12:20:30 PM 35.2381 -84.3133 360° North 422 486 39,900 1,750 Climbing Atlanta Center
Tue 12:21:30 PM 35.3569 -84.3139 360° North 422 486 41,000 550 Climbing Atlanta Center
Tue 12:22:30 PM 35.4739 -84.3117 North 422 486 41,000  Level Atlanta Center
Tue 12:23:30 PM 35.5908 -84.3119 360° North 422 486 41,000  Level Atlanta Center
Tue 12:24:30 PM 35.7075 -84.3125 360° North 422 486 41,000  Level Atlanta Center
Tue 12:25:30 PM 35.8244 -84.3103 North 422 486 41,000  Level Atlanta Center
Tue 12:26:30 PM 35.9392 -84.3106 360° North 416 479 41,000  Level Atlanta Center
Tue 12:27:30 PM 36.0539 -84.3111 360° North 416 479 41,000  Level Atlanta Center
Tue 12:29:28 PM 36.2783 -84.3106 360° North 414 476 41,000  Level Indianapolis Center
Tue 12:30:29 PM 36.3953 -84.3100 360° North 420 483 41,000  Level Indianapolis Center
Tue 12:31:31 PM 36.5300 -84.3100 360° North 421 484 41,000  Level Indianapolis Center
Tue 12:32:32 PM 36.6500 -84.3100 360° North 426 490 41,000  Level Indianapolis Center
Tue 12:33:34 PM 36.7694 -84.3114 359° North 428 493 41,000  Level Indianapolis Center
Tue 12:34:35 PM 36.8892 -84.3106 360° North 427 491 41,000  Level Indianapolis Center
Tue 12:35:37 PM 37.0064 -84.3103 360° North 422 486 41,000  Level Indianapolis Center
Tue 12:36:38 PM 37.1247 -84.3106 360° North 423 487 41,000  Level Indianapolis Center
Tue 12:37:39 PM 37.2428 -84.3103 360° North 423 487 41,000  Level Indianapolis Center
Tue 12:38:41 PM 37.3828 -84.3114 360° North 427 491 41,000  Level Indianapolis Center
Tue 12:39:42 PM 37.5011 -84.3125 360° North 424 488 41,000  Level Indianapolis Center
Tue 12:40:44 PM 37.6239 -84.3144 359° North 436 502 41,000  Level Indianapolis Center
Tue 12:41:46 PM 37.7442 -84.3178 359° North 431 496 41,000  Level Indianapolis Center
Tue 12:42:47 PM 37.8639 -84.3225 358° North 431 496 41,000  Level Indianapolis Center
Tue 12:43:49 PM 37.9839 -84.3261 359° North 429 494 41,000  Level Indianapolis Center
Tue 12:44:50 PM 38.1031 -84.3311 358° North 428 493 41,000  Level Indianapolis Center
Tue 12:45:52 PM 38.2228 -84.3344 359° North 427 491 41,000  Level Indianapolis Center
Tue 12:46:53 PM 38.3419 -84.3375 359° North 428 493 41,000  Level Indianapolis Center
Tue 12:47:55 PM 38.4806 -84.3433 358° North 426 490 41,000 -387 Level Indianapolis Center
Tue 12:48:57 PM 38.6006 -84.3481 358° North 430 495 40,200 -1,073 Descending Indianapolis Center
Tue 12:49:58 PM 38.7233 -84.3514 359° North 428 493 38,800 -1,415 Descending Indianapolis Center
Tue 12:51:00 PM 38.8383 -84.3550 359° North 411 473 37,300 -871 Descending Indianapolis Center
Tue 12:52:02 PM 38.9569 -84.3583 359° North 419 482 37,000 -339 Descending Indianapolis Center
Tue 12:53:04 PM 39.0781 -84.3625 358° North 427 491 36,600 -1,073 Descending Indianapolis Center
Tue 12:54:05 PM 39.1978 -84.3669 358° North 427 491 34,800 -1,805 Descending Indianapolis Center
Tue 12:55:07 PM 39.3178 -84.3728 358° North 426 490 32,900 -1,887 Descending Indianapolis Center
Tue 12:56:09 PM 39.4433 -84.3764 359° North 441 507 30,900 -1,839 Descending Indianapolis Center
Tue 12:57:11 PM 39.5708 -84.3814 358° North 450 518 29,100 -927 Descending Indianapolis Center
Tue 12:58:12 PM 39.6983 -84.3858 358° North 451 519 29,000 -49 Descending Indianapolis Center
Tue 12:59:14 PM 39.8514 -84.3914 358° North 462 532 29,000  Level Indianapolis Center
Tue 01:00:16 PM 39.9836 -84.3947 359° North 467 537 29,000  Level Indianapolis Center
Tue 01:01:18 PM 40.1142 -84.3989 359° North 464 534 29,000  Level Indianapolis Center
Tue 01:02:20 PM 40.2419 -84.4014 359° North 457 526 29,000  Level Indianapolis Center
Tue 01:03:21 PM 40.3694 -84.4061 358° North 452 520 29,000 -195 Level Indianapolis Center
Tue 01:04:23 PM 40.4975 -84.4097 359° North 452 520 28,600 -968 Descending Indianapolis Center
Tue 01:05:25 PM 40.6250 -84.4119 359° North 452 520 27,000 -1,887 Descending Indianapolis Center
Tue 01:06:27 PM 40.7528 -84.4156 359° North 454 522 24,700 -1,452 Descending Indianapolis Center
Tue 01:07:29 PM 40.8811 -84.4192 359° North 455 524 24,000 -475 Descending Indianapolis Center
Tue 01:08:08 PM 40.9761 -84.4228 358° North 455 524 23,900 -900 Descending Cleveland Center
Tue 01:09:09 PM 41.1011 -84.4247 359° North 450 518 22,500 -1,636 Descending Cleveland Center
Tue 01:10:09 PM 41.2261 -84.4264 359° North 450 518 20,600 -1,800 Descending Cleveland Center
Tue 01:11:09 PM 41.3489 -84.4311 358° North 444 511 18,900 -1,765 Descending Cleveland Center
Tue 01:12:08 PM 41.4678 -84.4325 359° North 434 499 17,100 -1,815 Descending Cleveland Center
Tue 01:13:08 PM 41.5844 -84.4367 358° North 428 493 15,300 -1,800 Descending Cleveland Center
Tue 01:14:08 PM 41.7014 -84.4297 North 417 480 13,500 -1,912 Descending Cleveland Center
Tue 01:14:39 PM 41.7511 -84.3828 35° Northeast 444 511 12,400 -1,964 Descending Cleveland Center
Tue 01:15:03 PM 41.7856 -84.3431 41° Northeast 438 504 11,700 -1,624 Descending Cleveland Center
Tue 01:16:04 PM 41.8764 -84.2478 38° Northeast 387 445 10,100 -810 Descending Cleveland Center
Tue 01:17:09 PM 41.9478 -84.1681 40° Northeast 365 420 10,000 -240 Descending Cleveland Center
Tue 01:18:09 PM 42.0128 -84.0881 42° Northeast 332 382 9,600 -1,297 Descending Cleveland Center
Tue 01:19:00 PM 42.0778 -84.0047 44° Northeast 325 374 7,600 -2,196 Descending Cleveland Center
Tue 01:20:01 PM 42.1386 -83.9211 46° Northeast 312 359 5,500 -1,765 Descending Cleveland Center
Tue 01:20:08 PM 42.1386 -83.9211 46° Northeast 317 365 5,600 -1,324 Climbing Cleveland Center
Tue 01:21:09 PM 42.1331 -83.8228 94° East 256 295 4,000 -843 Descending Cleveland Center
Tue 01:22:09 PM 42.1206 -83.7522 103° East 169 194 3,900 -450 Descending Cleveland Center
Tue 01:23:09 PM 42.1350 -83.6831 74° East 197 227 3,100 -595 Descending Cleveland Center
Tue 01:24:10 PM 42.1675 -83.6342 48° Northeast 172 198 2,700 -571 Descending Cleveland Center
Tue 01:24:33 PM 42.1789 -83.6136 53° Northeast 159 183 2,300 -857 Descending FAA TRACON SMA TRACON (SMA)
Tue 01:24:52 PM 42.1875 -83.6006 48° Northeast 151 174 2,100 -769 Descending FAA TRACON SMA TRACON (SMA)
Tue 01:25:12 PM 42.1961 -83.5892 44° Northeast 142 163 1,800 -750 Descending FAA TRACON SMA TRACON (SMA)
Tue 01:25:32 PM 42.2061 -83.5750 46° Northeast 142 163 1,600 -698 Descending FAA TRACON SMA TRACON (SMA)
Tue 01:25:55 PM 42.2144 -83.5631 47° Northeast 141 162 1,300 -818 Descending FAA TRACON SMA TRACON (SMA)
Tue 01:26:16 PM 42.2253 -83.5475 47° Northeast 138 159 1,000 -474 Descending FAA TRACON SMA TRACON (SMA)
Tue 01:26:33 PM 42.2253 -83.5475 180° South 138 159 1,000  Level FAA TRACON SMA TRACON (SMA)
Tue 01:27:13 PM 42.2253 -83.5475 180° South 138 159 1,000  Level FAA TRACON SMA TRACON (SMA)

Login

Don't have an account? Register now (free) for customized features, flight alerts, and more!